sensor_id;sensor_type;location;lat;lon;timestamp;P1;durP1;ratioP1;P2;durP2;ratioP2
8909;SDS011;4490;49.072;8.804;2022-10-18T00:01:25;8.67;;;5.40;;
8909;SDS011;4490;49.072;8.804;2022-10-18T00:03:51;6.67;;;5.10;;
8909;SDS011;4490;49.072;8.804;2022-10-18T00:06:16;9.90;;;5.10;;
8909;SDS011;4490;49.072;8.804;2022-10-18T00:08:42;12.70;;;5.93;;
8909;SDS011;4490;49.072;8.804;2022-10-18T00:11:08;9.30;;;5.23;;
8909;SDS011;4490;49.072;8.804;2022-10-18T00:13:33;10.03;;;6.50;;
8909;SDS011;4490;49.072;8.804;2022-10-18T00:16:00;15.20;;;7.10;;
8909;SDS011;4490;49.072;8.804;2022-10-18T00:18:27;10.50;;;7.37;;
8909;SDS011;4490;49.072;8.804;2022-10-18T00:21:00;11.93;;;6.87;;
8909;SDS011;4490;49.072;8.804;2022-10-18T00:23:29;10.53;;;7.17;;
8909;SDS011;4490;49.072;8.804;2022-10-18T00:26:03;9.13;;;7.27;;
8909;SDS011;4490;49.072;8.804;2022-10-18T00:28:31;8.70;;;7.13;;
8909;SDS011;4490;49.072;8.804;2022-10-18T00:31:07;14.13;;;7.63;;
8909;SDS011;4490;49.072;8.804;2022-10-18T00:33:37;10.23;;;7.20;;
8909;SDS011;4490;49.072;8.804;2022-10-18T00:36:03;9.03;;;6.60;;
8909;SDS011;4490;49.072;8.804;2022-10-18T00:38:28;12.50;;;7.30;;
8909;SDS011;4490;49.072;8.804;2022-10-18T00:40:54;9.50;;;6.83;;
8909;SDS011;4490;49.072;8.804;2022-10-18T00:43:20;8.93;;;7.40;;
8909;SDS011;4490;49.072;8.804;2022-10-18T00:45:45;8.77;;;6.80;;
8909;SDS011;4490;49.072;8.804;2022-10-18T00:48:11;11.73;;;7.37;;
8909;SDS011;4490;49.072;8.804;2022-10-18T00:50:38;11.57;;;6.50;;
8909;SDS011;4490;49.072;8.804;2022-10-18T00:53:06;7.73;;;6.77;;
8909;SDS011;4490;49.072;8.804;2022-10-18T00:55:36;11.77;;;6.63;;
8909;SDS011;4490;49.072;8.804;2022-10-18T00:58:02;10.33;;;7.07;;
8909;SDS011;4490;49.072;8.804;2022-10-18T01:00:29;8.40;;;6.63;;
8909;SDS011;4490;49.072;8.804;2022-10-18T01:02:55;14.37;;;6.73;;
8909;SDS011;4490;49.072;8.804;2022-10-18T01:05:23;9.37;;;6.43;;
8909;SDS011;4490;49.072;8.804;2022-10-18T01:13:23;9.30;;;6.23;;
8909;SDS011;4490;49.072;8.804;2022-10-18T01:31:52;7.07;;;5.20;;
8909;SDS011;4490;49.072;8.804;2022-10-18T01:34:27;9.30;;;5.40;;
8909;SDS011;4490;49.072;8.804;2022-10-18T01:36:59;7.57;;;5.53;;
8909;SDS011;4490;49.072;8.804;2022-10-18T01:39:28;10.20;;;6.20;;
8909;SDS011;4490;49.072;8.804;2022-10-18T01:42:00;9.77;;;5.63;;
8909;SDS011;4490;49.072;8.804;2022-10-18T01:44:30;8.73;;;5.10;;
8909;SDS011;4490;49.072;8.804;2022-10-18T01:46:56;6.07;;;5.43;;
8909;SDS011;4490;49.072;8.804;2022-10-18T01:49:23;6.83;;;5.33;;
8909;SDS011;4490;49.072;8.804;2022-10-18T01:51:50;5.70;;;5.20;;
8909;SDS011;4490;49.072;8.804;2022-10-18T01:54:17;9.33;;;5.63;;
8909;SDS011;4490;49.072;8.804;2022-10-18T01:56:53;10.47;;;5.00;;
8909;SDS011;4490;49.072;8.804;2022-10-18T02:05:23;10.20;;;5.20;;
8909;SDS011;4490;49.072;8.804;2022-10-18T02:08:05;7.30;;;5.20;;
8909;SDS011;4490;49.072;8.804;2022-10-18T02:10:53;8.67;;;5.63;;
8909;SDS011;4490;49.072;8.804;2022-10-18T02:13:21;6.80;;;5.10;;
8909;SDS011;4490;49.072;8.804;2022-10-18T02:15:52;7.47;;;6.23;;
8909;SDS011;4490;49.072;8.804;2022-10-18T02:18:24;7.00;;;5.63;;
8909;SDS011;4490;49.072;8.804;2022-10-18T02:20:54;9.37;;;6.20;;
8909;SDS011;4490;49.072;8.804;2022-10-18T02:23:22;10.50;;;6.17;;
8909;SDS011;4490;49.072;8.804;2022-10-18T02:25:50;7.90;;;6.00;;
8909;SDS011;4490;49.072;8.804;2022-10-18T02:28:17;8.03;;;6.20;;
8909;SDS011;4490;49.072;8.804;2022-10-18T02:30:43;8.37;;;6.50;;
8909;SDS011;4490;49.072;8.804;2022-10-18T02:33:38;7.53;;;5.90;;
8909;SDS011;4490;49.072;8.804;2022-10-18T02:36:12;7.67;;;5.97;;
8909;SDS011;4490;49.072;8.804;2022-10-18T02:38:42;7.97;;;6.00;;
8909;SDS011;4490;49.072;8.804;2022-10-18T02:41:10;8.67;;;6.57;;
8909;SDS011;4490;49.072;8.804;2022-10-18T02:43:36;10.30;;;5.97;;
8909;SDS011;4490;49.072;8.804;2022-10-18T02:46:01;9.77;;;6.40;;
8909;SDS011;4490;49.072;8.804;2022-10-18T02:48:27;14.63;;;6.93;;
8909;SDS011;4490;49.072;8.804;2022-10-18T02:50:53;9.23;;;6.90;;
8909;SDS011;4490;49.072;8.804;2022-10-18T02:53:19;7.63;;;6.63;;
8909;SDS011;4490;49.072;8.804;2022-10-18T02:55:45;8.00;;;6.10;;
8909;SDS011;4490;49.072;8.804;2022-10-18T02:58:10;11.40;;;6.77;;
8909;SDS011;4490;49.072;8.804;2022-10-18T03:00:36;10.00;;;6.60;;
8909;SDS011;4490;49.072;8.804;2022-10-18T03:03:01;10.50;;;6.67;;
8909;SDS011;4490;49.072;8.804;2022-10-18T03:05:27;9.53;;;6.73;;
8909;SDS011;4490;49.072;8.804;2022-10-18T03:07:55;11.57;;;6.23;;
8909;SDS011;4490;49.072;8.804;2022-10-18T03:10:21;8.93;;;5.93;;
8909;SDS011;4490;49.072;8.804;2022-10-18T03:12:47;8.47;;;5.80;;
8909;SDS011;4490;49.072;8.804;2022-10-18T03:15:12;10.10;;;5.47;;
8909;SDS011;4490;49.072;8.804;2022-10-18T03:17:38;10.30;;;6.10;;
8909;SDS011;4490;49.072;8.804;2022-10-18T03:20:04;6.90;;;6.20;;
8909;SDS011;4490;49.072;8.804;2022-10-18T03:22:30;7.67;;;5.60;;
8909;SDS011;4490;49.072;8.804;2022-10-18T03:24:55;12.80;;;6.00;;
8909;SDS011;4490;49.072;8.804;2022-10-18T03:27:21;10.87;;;6.40;;
8909;SDS011;4490;49.072;8.804;2022-10-18T03:29:46;11.47;;;6.50;;
8909;SDS011;4490;49.072;8.804;2022-10-18T03:32:12;10.27;;;6.47;;
8909;SDS011;4490;49.072;8.804;2022-10-18T03:34:38;10.67;;;6.57;;
8909;SDS011;4490;49.072;8.804;2022-10-18T03:37:03;8.73;;;7.17;;
8909;SDS011;4490;49.072;8.804;2022-10-18T03:39:29;10.67;;;7.80;;
8909;SDS011;4490;49.072;8.804;2022-10-18T03:41:54;10.40;;;8.40;;
8909;SDS011;4490;49.072;8.804;2022-10-18T03:44:20;10.27;;;8.30;;
8909;SDS011;4490;49.072;8.804;2022-10-18T03:46:45;10.17;;;7.80;;
8909;SDS011;4490;49.072;8.804;2022-10-18T03:49:11;11.20;;;8.60;;
8909;SDS011;4490;49.072;8.804;2022-10-18T03:51:37;13.57;;;8.07;;
8909;SDS011;4490;49.072;8.804;2022-10-18T03:54:02;12.00;;;7.90;;
8909;SDS011;4490;49.072;8.804;2022-10-18T03:56:28;10.67;;;7.60;;
8909;SDS011;4490;49.072;8.804;2022-10-18T03:58:54;11.77;;;7.67;;
8909;SDS011;4490;49.072;8.804;2022-10-18T04:01:21;11.50;;;7.67;;
8909;SDS011;4490;49.072;8.804;2022-10-18T04:03:46;8.67;;;7.60;;
8909;SDS011;4490;49.072;8.804;2022-10-18T04:06:12;13.83;;;8.00;;
8909;SDS011;4490;49.072;8.804;2022-10-18T04:08:37;13.80;;;7.97;;
8909;SDS011;4490;49.072;8.804;2022-10-18T04:11:04;16.50;;;8.20;;
8909;SDS011;4490;49.072;8.804;2022-10-18T04:13:32;13.23;;;8.10;;
8909;SDS011;4490;49.072;8.804;2022-10-18T04:15:59;10.03;;;7.73;;
8909;SDS011;4490;49.072;8.804;2022-10-18T04:18:24;11.60;;;7.77;;
8909;SDS011;4490;49.072;8.804;2022-10-18T04:20:50;15.40;;;9.10;;
8909;SDS011;4490;49.072;8.804;2022-10-18T04:23:16;17.23;;;9.03;;
8909;SDS011;4490;49.072;8.804;2022-10-18T04:25:41;14.20;;;8.30;;
8909;SDS011;4490;49.072;8.804;2022-10-18T04:28:07;14.07;;;9.07;;
8909;SDS011;4490;49.072;8.804;2022-10-18T04:30:32;14.83;;;8.73;;
8909;SDS011;4490;49.072;8.804;2022-10-18T04:32:58;13.00;;;8.40;;
8909;SDS011;4490;49.072;8.804;2022-10-18T04:35:24;13.83;;;8.60;;
8909;SDS011;4490;49.072;8.804;2022-10-18T04:37:50;10.33;;;7.70;;
8909;SDS011;4490;49.072;8.804;2022-10-18T04:40:15;10.07;;;7.47;;
8909;SDS011;4490;49.072;8.804;2022-10-18T04:42:41;10.87;;;8.20;;
8909;SDS011;4490;49.072;8.804;2022-10-18T04:45:07;13.23;;;8.63;;
8909;SDS011;4490;49.072;8.804;2022-10-18T04:47:32;14.67;;;8.37;;
8909;SDS011;4490;49.072;8.804;2022-10-18T04:49:58;9.07;;;8.10;;
8909;SDS011;4490;49.072;8.804;2022-10-18T04:52:24;14.43;;;7.97;;
8909;SDS011;4490;49.072;8.804;2022-10-18T04:54:49;9.77;;;8.13;;
8909;SDS011;4490;49.072;8.804;2022-10-18T04:57:15;13.43;;;7.97;;
8909;SDS011;4490;49.072;8.804;2022-10-18T04:59:40;11.70;;;8.30;;
8909;SDS011;4490;49.072;8.804;2022-10-18T05:02:06;12.50;;;8.53;;
8909;SDS011;4490;49.072;8.804;2022-10-18T05:04:32;16.27;;;8.10;;
8909;SDS011;4490;49.072;8.804;2022-10-18T05:06:58;13.23;;;8.07;;
8909;SDS011;4490;49.072;8.804;2022-10-18T05:09:23;17.67;;;8.10;;
8909;SDS011;4490;49.072;8.804;2022-10-18T05:11:49;12.33;;;7.87;;
8909;SDS011;4490;49.072;8.804;2022-10-18T05:14:15;14.20;;;8.70;;
8909;SDS011;4490;49.072;8.804;2022-10-18T05:16:40;14.83;;;8.30;;
8909;SDS011;4490;49.072;8.804;2022-10-18T05:19:06;13.57;;;8.27;;
8909;SDS011;4490;49.072;8.804;2022-10-18T05:21:32;12.40;;;7.60;;
8909;SDS011;4490;49.072;8.804;2022-10-18T05:23:57;13.93;;;8.13;;
8909;SDS011;4490;49.072;8.804;2022-10-18T05:26:23;14.67;;;7.90;;
8909;SDS011;4490;49.072;8.804;2022-10-18T05:28:49;13.23;;;7.77;;
8909;SDS011;4490;49.072;8.804;2022-10-18T05:31:15;8.70;;;7.57;;
8909;SDS011;4490;49.072;8.804;2022-10-18T05:33:41;11.33;;;7.70;;
8909;SDS011;4490;49.072;8.804;2022-10-18T05:36:07;13.60;;;7.37;;
8909;SDS011;4490;49.072;8.804;2022-10-18T05:38:33;10.03;;;7.03;;
8909;SDS011;4490;49.072;8.804;2022-10-18T05:41:02;12.47;;;7.37;;
8909;SDS011;4490;49.072;8.804;2022-10-18T05:43:29;11.37;;;6.53;;
8909;SDS011;4490;49.072;8.804;2022-10-18T05:45:55;11.57;;;7.43;;
8909;SDS011;4490;49.072;8.804;2022-10-18T05:48:20;8.60;;;6.87;;
8909;SDS011;4490;49.072;8.804;2022-10-18T05:50:46;10.03;;;6.27;;
8909;SDS011;4490;49.072;8.804;2022-10-18T05:53:12;11.67;;;7.40;;
8909;SDS011;4490;49.072;8.804;2022-10-18T05:55:37;7.80;;;6.77;;
8909;SDS011;4490;49.072;8.804;2022-10-18T05:58:03;13.33;;;6.70;;
8909;SDS011;4490;49.072;8.804;2022-10-18T06:00:29;10.70;;;7.00;;
8909;SDS011;4490;49.072;8.804;2022-10-18T06:02:54;14.07;;;7.30;;
8909;SDS011;4490;49.072;8.804;2022-10-18T06:05:20;8.93;;;7.03;;
8909;SDS011;4490;49.072;8.804;2022-10-18T06:07:46;9.93;;;7.10;;
8909;SDS011;4490;49.072;8.804;2022-10-18T06:10:12;9.80;;;6.47;;
8909;SDS011;4490;49.072;8.804;2022-10-18T06:12:37;11.60;;;6.67;;
8909;SDS011;4490;49.072;8.804;2022-10-18T06:15:03;8.33;;;6.07;;
8909;SDS011;4490;49.072;8.804;2022-10-18T06:17:29;10.80;;;6.27;;
8909;SDS011;4490;49.072;8.804;2022-10-18T06:19:55;10.43;;;6.60;;
8909;SDS011;4490;49.072;8.804;2022-10-18T06:22:20;11.47;;;6.33;;
8909;SDS011;4490;49.072;8.804;2022-10-18T06:24:46;10.30;;;6.60;;
8909;SDS011;4490;49.072;8.804;2022-10-18T06:27:11;9.47;;;7.00;;
8909;SDS011;4490;49.072;8.804;2022-10-18T06:29:38;14.03;;;6.97;;
8909;SDS011;4490;49.072;8.804;2022-10-18T06:32:05;8.57;;;6.43;;
8909;SDS011;4490;49.072;8.804;2022-10-18T06:34:32;11.83;;;6.23;;
8909;SDS011;4490;49.072;8.804;2022-10-18T06:36:58;9.40;;;6.10;;
8909;SDS011;4490;49.072;8.804;2022-10-18T06:39:23;13.67;;;6.80;;
8909;SDS011;4490;49.072;8.804;2022-10-18T06:41:49;11.57;;;6.63;;
8909;SDS011;4490;49.072;8.804;2022-10-18T06:44:15;8.80;;;6.70;;
8909;SDS011;4490;49.072;8.804;2022-10-18T06:46:42;9.67;;;6.73;;
8909;SDS011;4490;49.072;8.804;2022-10-18T06:49:09;9.90;;;6.30;;
8909;SDS011;4490;49.072;8.804;2022-10-18T06:51:35;12.60;;;6.70;;
8909;SDS011;4490;49.072;8.804;2022-10-18T06:54:01;10.20;;;6.80;;
8909;SDS011;4490;49.072;8.804;2022-10-18T06:56:27;9.13;;;7.10;;
8909;SDS011;4490;49.072;8.804;2022-10-18T06:58:53;9.87;;;7.10;;
8909;SDS011;4490;49.072;8.804;2022-10-18T07:01:19;11.27;;;7.83;;
8909;SDS011;4490;49.072;8.804;2022-10-18T07:03:45;8.03;;;7.23;;
8909;SDS011;4490;49.072;8.804;2022-10-18T07:06:13;9.03;;;7.53;;
8909;SDS011;4490;49.072;8.804;2022-10-18T07:08:40;14.37;;;7.67;;
8909;SDS011;4490;49.072;8.804;2022-10-18T07:11:07;13.20;;;8.40;;
8909;SDS011;4490;49.072;8.804;2022-10-18T07:13:37;10.30;;;8.00;;
8909;SDS011;4490;49.072;8.804;2022-10-18T07:16:04;15.07;;;9.30;;
8909;SDS011;4490;49.072;8.804;2022-10-18T07:18:36;19.27;;;8.10;;
8909;SDS011;4490;49.072;8.804;2022-10-18T07:21:07;14.50;;;8.47;;
8909;SDS011;4490;49.072;8.804;2022-10-18T07:23:35;10.90;;;8.87;;
8909;SDS011;4490;49.072;8.804;2022-10-18T07:26:03;12.17;;;8.20;;
8909;SDS011;4490;49.072;8.804;2022-10-18T07:28:36;15.13;;;8.07;;
8909;SDS011;4490;49.072;8.804;2022-10-18T07:31:06;15.90;;;8.10;;
8909;SDS011;4490;49.072;8.804;2022-10-18T07:33:33;18.53;;;8.50;;
8909;SDS011;4490;49.072;8.804;2022-10-18T07:36:00;15.87;;;7.77;;
8909;SDS011;4490;49.072;8.804;2022-10-18T07:38:27;20.93;;;8.87;;
8909;SDS011;4490;49.072;8.804;2022-10-18T07:40:56;14.07;;;7.63;;
8909;SDS011;4490;49.072;8.804;2022-10-18T07:43:23;12.33;;;7.53;;
8909;SDS011;4490;49.072;8.804;2022-10-18T07:45:53;12.03;;;8.00;;
8909;SDS011;4490;49.072;8.804;2022-10-18T07:48:20;12.33;;;7.83;;
8909;SDS011;4490;49.072;8.804;2022-10-18T07:50:46;13.53;;;7.37;;
8909;SDS011;4490;49.072;8.804;2022-10-18T07:53:11;13.63;;;7.17;;
8909;SDS011;4490;49.072;8.804;2022-10-18T07:55:37;11.60;;;6.23;;
8909;SDS011;4490;49.072;8.804;2022-10-18T07:58:03;12.57;;;6.80;;
8909;SDS011;4490;49.072;8.804;2022-10-18T08:00:29;8.20;;;5.50;;
8909;SDS011;4490;49.072;8.804;2022-10-18T08:02:55;12.57;;;6.00;;
8909;SDS011;4490;49.072;8.804;2022-10-18T08:05:21;8.63;;;6.07;;
8909;SDS011;4490;49.072;8.804;2022-10-18T08:07:47;8.53;;;5.63;;
8909;SDS011;4490;49.072;8.804;2022-10-18T08:10:12;6.67;;;5.43;;
8909;SDS011;4490;49.072;8.804;2022-10-18T08:12:38;18.17;;;6.13;;
8909;SDS011;4490;49.072;8.804;2022-10-18T08:15:04;12.63;;;6.40;;
8909;SDS011;4490;49.072;8.804;2022-10-18T08:17:30;7.60;;;5.67;;
8909;SDS011;4490;49.072;8.804;2022-10-18T08:19:55;5.80;;;5.27;;
8909;SDS011;4490;49.072;8.804;2022-10-18T08:22:21;9.53;;;6.40;;
8909;SDS011;4490;49.072;8.804;2022-10-18T08:24:47;7.77;;;5.17;;
8909;SDS011;4490;49.072;8.804;2022-10-18T08:27:13;12.00;;;6.07;;
8909;SDS011;4490;49.072;8.804;2022-10-18T08:29:39;8.67;;;6.00;;
8909;SDS011;4490;49.072;8.804;2022-10-18T08:32:05;8.53;;;5.73;;
8909;SDS011;4490;49.072;8.804;2022-10-18T08:34:31;9.67;;;6.00;;
8909;SDS011;4490;49.072;8.804;2022-10-18T08:36:58;13.67;;;6.27;;
8909;SDS011;4490;49.072;8.804;2022-10-18T08:39:24;8.43;;;5.83;;
8909;SDS011;4490;49.072;8.804;2022-10-18T08:42:09;6.07;;;5.43;;
8909;SDS011;4490;49.072;8.804;2022-10-18T08:44:43;12.73;;;5.57;;
8909;SDS011;4490;49.072;8.804;2022-10-18T08:47:12;7.70;;;5.40;;
8909;SDS011;4490;49.072;8.804;2022-10-18T08:49:42;9.40;;;5.60;;
8909;SDS011;4490;49.072;8.804;2022-10-18T08:52:43;8.97;;;5.17;;
8909;SDS011;4490;49.072;8.804;2022-10-18T08:55:10;9.40;;;5.30;;
8909;SDS011;4490;49.072;8.804;2022-10-18T08:58:06;8.73;;;5.00;;
8909;SDS011;4490;49.072;8.804;2022-10-18T09:00:56;5.27;;;4.57;;
8909;SDS011;4490;49.072;8.804;2022-10-18T09:03:37;6.67;;;4.97;;
8909;SDS011;4490;49.072;8.804;2022-10-18T09:06:32;10.77;;;4.97;;
8909;SDS011;4490;49.072;8.804;2022-10-18T09:11:46;6.40;;;4.30;;
8909;SDS011;4490;49.072;8.804;2022-10-18T09:25:19;4.73;;;3.53;;
8909;SDS011;4490;49.072;8.804;2022-10-18T09:36:14;4.18;;;3.53;;
8909;SDS011;4490;49.072;8.804;2022-10-18T09:38:49;6.35;;;3.35;;
8909;SDS011;4490;49.072;8.804;2022-10-18T09:44:02;5.30;;;3.70;;
8909;SDS011;4490;49.072;8.804;2022-10-18T09:46:36;6.03;;;3.45;;
8909;SDS011;4490;49.072;8.804;2022-10-18T09:49:08;8.90;;;3.95;;
8909;SDS011;4490;49.072;8.804;2022-10-18T09:51:38;5.40;;;3.47;;
8909;SDS011;4490;49.072;8.804;2022-10-18T09:56:55;5.90;;;4.05;;
8909;SDS011;4490;49.072;8.804;2022-10-18T10:02:08;5.45;;;3.75;;
8909;SDS011;4490;49.072;8.804;2022-10-18T10:04:40;5.82;;;3.60;;
8909;SDS011;4490;49.072;8.804;2022-10-18T10:07:15;9.18;;;3.80;;
8909;SDS011;4490;49.072;8.804;2022-10-18T10:12:38;9.15;;;3.83;;
8909;SDS011;4490;49.072;8.804;2022-10-18T10:15:08;5.68;;;3.83;;
8909;SDS011;4490;49.072;8.804;2022-10-18T10:18:02;6.95;;;3.50;;
8909;SDS011;4490;49.072;8.804;2022-10-18T10:20:49;5.95;;;3.50;;
8909;SDS011;4490;49.072;8.804;2022-10-18T10:25:51;5.53;;;3.60;;
8909;SDS011;4490;49.072;8.804;2022-10-18T10:28:30;8.35;;;3.80;;
8909;SDS011;4490;49.072;8.804;2022-10-18T10:33:46;6.55;;;3.50;;
8909;SDS011;4490;49.072;8.804;2022-10-18T10:36:16;5.88;;;3.72;;
8909;SDS011;4490;49.072;8.804;2022-10-18T10:38:43;6.32;;;3.60;;
8909;SDS011;4490;49.072;8.804;2022-10-18T10:41:22;5.93;;;3.45;;
8909;SDS011;4490;49.072;8.804;2022-10-18T10:43:48;6.93;;;3.83;;
8909;SDS011;4490;49.072;8.804;2022-10-18T10:46:18;6.80;;;3.60;;
8909;SDS011;4490;49.072;8.804;2022-10-18T10:48:55;8.40;;;3.90;;
8909;SDS011;4490;49.072;8.804;2022-10-18T10:51:32;5.88;;;3.40;;
8909;SDS011;4490;49.072;8.804;2022-10-18T10:54:12;7.40;;;3.70;;
8909;SDS011;4490;49.072;8.804;2022-10-18T10:56:53;7.78;;;3.75;;
8909;SDS011;4490;49.072;8.804;2022-10-18T10:59:19;7.15;;;3.63;;
8909;SDS011;4490;49.072;8.804;2022-10-18T11:01:48;7.30;;;3.67;;
8909;SDS011;4490;49.072;8.804;2022-10-18T11:12:37;4.68;;;3.60;;
8909;SDS011;4490;49.072;8.804;2022-10-18T11:15:21;6.50;;;3.90;;
8909;SDS011;4490;49.072;8.804;2022-10-18T11:23:32;5.18;;;3.25;;
8909;SDS011;4490;49.072;8.804;2022-10-18T11:31:22;8.02;;;3.15;;
8909;SDS011;4490;49.072;8.804;2022-10-18T11:36:53;7.25;;;3.63;;
8909;SDS011;4490;49.072;8.804;2022-10-18T11:41:59;5.15;;;3.92;;
8909;SDS011;4490;49.072;8.804;2022-10-18T11:44:49;5.18;;;3.90;;
8909;SDS011;4490;49.072;8.804;2022-10-18T11:47:20;3.67;;;3.30;;
8909;SDS011;4490;49.072;8.804;2022-10-18T11:52:35;5.20;;;3.08;;
8909;SDS011;4490;49.072;8.804;2022-10-18T11:58:18;4.05;;;2.75;;
8909;SDS011;4490;49.072;8.804;2022-10-18T12:00:52;5.68;;;2.95;;
8909;SDS011;4490;49.072;8.804;2022-10-18T12:06:16;3.15;;;2.53;;
8909;SDS011;4490;49.072;8.804;2022-10-18T12:08:45;5.15;;;2.70;;
8909;SDS011;4490;49.072;8.804;2022-10-18T12:11:15;3.97;;;2.65;;
8909;SDS011;4490;49.072;8.804;2022-10-18T12:13:55;3.92;;;2.90;;
8909;SDS011;4490;49.072;8.804;2022-10-18T12:16:24;4.70;;;3.13;;
8909;SDS011;4490;49.072;8.804;2022-10-18T12:18:55;3.17;;;2.50;;
8909;SDS011;4490;49.072;8.804;2022-10-18T12:21:25;5.63;;;2.95;;
8909;SDS011;4490;49.072;8.804;2022-10-18T12:26:27;4.95;;;3.10;;
8909;SDS011;4490;49.072;8.804;2022-10-18T12:34:31;3.72;;;2.90;;
8909;SDS011;4490;49.072;8.804;2022-10-18T12:39:48;3.47;;;3.20;;
8909;SDS011;4490;49.072;8.804;2022-10-18T12:42:23;4.90;;;3.25;;
8909;SDS011;4490;49.072;8.804;2022-10-18T12:47:38;3.88;;;3.20;;
8909;SDS011;4490;49.072;8.804;2022-10-18T12:50:06;3.78;;;3.25;;
8909;SDS011;4490;49.072;8.804;2022-10-18T12:52:45;4.00;;;3.50;;
8909;SDS011;4490;49.072;8.804;2022-10-18T12:55:41;5.68;;;3.53;;
8909;SDS011;4490;49.072;8.804;2022-10-18T13:00:56;4.63;;;3.20;;
8909;SDS011;4490;49.072;8.804;2022-10-18T13:11:24;4.10;;;3.20;;
8909;SDS011;4490;49.072;8.804;2022-10-18T13:27:41;3.40;;;3.10;;
8909;SDS011;4490;49.072;8.804;2022-10-18T13:41:09;2.90;;;2.70;;
8909;SDS011;4490;49.072;8.804;2022-10-18T13:48:59;3.85;;;3.00;;
8909;SDS011;4490;49.072;8.804;2022-10-18T13:57:24;6.63;;;3.70;;
8909;SDS011;4490;49.072;8.804;2022-10-18T14:00:07;4.20;;;3.80;;
8909;SDS011;4490;49.072;8.804;2022-10-18T14:14:03;4.10;;;3.58;;
8909;SDS011;4490;49.072;8.804;2022-10-18T14:16:46;4.22;;;3.83;;
8909;SDS011;4490;49.072;8.804;2022-10-18T14:24:54;6.32;;;3.97;;
8909;SDS011;4490;49.072;8.804;2022-10-18T14:27:25;4.22;;;3.90;;
8909;SDS011;4490;49.072;8.804;2022-10-18T14:32:48;5.20;;;4.68;;
8909;SDS011;4490;49.072;8.804;2022-10-18T14:35:19;4.95;;;4.47;;
8909;SDS011;4490;49.072;8.804;2022-10-18T14:37:47;6.20;;;4.30;;
8909;SDS011;4490;49.072;8.804;2022-10-18T14:40:28;5.70;;;4.13;;
8909;SDS011;4490;49.072;8.804;2022-10-18T14:42:53;4.80;;;4.30;;
8909;SDS011;4490;49.072;8.804;2022-10-18T14:45:20;4.40;;;4.00;;
8909;SDS011;4490;49.072;8.804;2022-10-18T14:47:47;4.32;;;3.92;;
8909;SDS011;4490;49.072;8.804;2022-10-18T14:50:30;7.35;;;4.28;;
8909;SDS011;4490;49.072;8.804;2022-10-18T14:52:56;6.10;;;4.35;;
8909;SDS011;4490;49.072;8.804;2022-10-18T14:55:23;6.57;;;4.43;;
8909;SDS011;4490;49.072;8.804;2022-10-18T14:57:52;4.85;;;4.45;;
8909;SDS011;4490;49.072;8.804;2022-10-18T15:00:34;5.13;;;4.63;;
8909;SDS011;4490;49.072;8.804;2022-10-18T15:03:04;5.30;;;4.80;;
8909;SDS011;4490;49.072;8.804;2022-10-18T15:05:32;5.65;;;4.70;;
8909;SDS011;4490;49.072;8.804;2022-10-18T15:07:57;5.13;;;4.70;;
8909;SDS011;4490;49.072;8.804;2022-10-18T15:10:28;7.95;;;4.47;;
8909;SDS011;4490;49.072;8.804;2022-10-18T15:12:56;5.20;;;4.78;;
8909;SDS011;4490;49.072;8.804;2022-10-18T15:15:30;5.25;;;4.78;;
8909;SDS011;4490;49.072;8.804;2022-10-18T15:17:57;5.18;;;4.78;;
8909;SDS011;4490;49.072;8.804;2022-10-18T15:20:26;5.40;;;4.90;;
8909;SDS011;4490;49.072;8.804;2022-10-18T15:23:17;8.50;;;4.93;;
8909;SDS011;4490;49.072;8.804;2022-10-18T15:25:58;6.38;;;5.10;;
8909;SDS011;4490;49.072;8.804;2022-10-18T15:28:28;6.15;;;4.90;;
8909;SDS011;4490;49.072;8.804;2022-10-18T15:30:59;7.07;;;5.10;;
8909;SDS011;4490;49.072;8.804;2022-10-18T15:33:26;7.25;;;5.55;;
8909;SDS011;4490;49.072;8.804;2022-10-18T15:36:06;5.40;;;4.93;;
8909;SDS011;4490;49.072;8.804;2022-10-18T15:38:36;6.53;;;5.22;;
8909;SDS011;4490;49.072;8.804;2022-10-18T15:41:34;5.70;;;4.93;;
8909;SDS011;4490;49.072;8.804;2022-10-18T15:44:20;5.95;;;5.20;;
8909;SDS011;4490;49.072;8.804;2022-10-18T15:46:55;5.70;;;5.05;;
8909;SDS011;4490;49.072;8.804;2022-10-18T15:49:52;10.18;;;5.32;;
8909;SDS011;4490;49.072;8.804;2022-10-18T15:54:45;6.55;;;4.50;;
8909;SDS011;4490;49.072;8.804;2022-10-18T15:57:12;5.18;;;4.50;;
8909;SDS011;4490;49.072;8.804;2022-10-18T15:59:48;6.18;;;5.05;;
8909;SDS011;4490;49.072;8.804;2022-10-18T16:02:17;6.97;;;4.65;;
8909;SDS011;4490;49.072;8.804;2022-10-18T16:04:44;6.53;;;4.95;;
8909;SDS011;4490;49.072;8.804;2022-10-18T16:07:11;8.65;;;4.97;;
8909;SDS011;4490;49.072;8.804;2022-10-18T16:09:37;4.82;;;4.43;;
8909;SDS011;4490;49.072;8.804;2022-10-18T16:12:02;7.35;;;5.05;;
8909;SDS011;4490;49.072;8.804;2022-10-18T16:14:29;5.72;;;4.72;;
8909;SDS011;4490;49.072;8.804;2022-10-18T16:16:55;5.20;;;4.70;;
8909;SDS011;4490;49.072;8.804;2022-10-18T16:19:23;5.63;;;4.88;;
8909;SDS011;4490;49.072;8.804;2022-10-18T16:21:49;5.45;;;4.72;;
8909;SDS011;4490;49.072;8.804;2022-10-18T16:24:16;5.18;;;4.60;;
8909;SDS011;4490;49.072;8.804;2022-10-18T16:26:42;7.60;;;4.53;;
8909;SDS011;4490;49.072;8.804;2022-10-18T16:29:14;4.88;;;4.45;;
8909;SDS011;4490;49.072;8.804;2022-10-18T16:31:45;5.40;;;4.90;;
8909;SDS011;4490;49.072;8.804;2022-10-18T16:34:12;5.43;;;4.93;;
8909;SDS011;4490;49.072;8.804;2022-10-18T16:36:39;8.05;;;4.70;;
8909;SDS011;4490;49.072;8.804;2022-10-18T16:39:06;7.05;;;4.75;;
8909;SDS011;4490;49.072;8.804;2022-10-18T16:41:39;5.28;;;4.78;;
8909;SDS011;4490;49.072;8.804;2022-10-18T16:44:05;8.02;;;4.88;;
8909;SDS011;4490;49.072;8.804;2022-10-18T16:46:32;7.05;;;5.10;;
8909;SDS011;4490;49.072;8.804;2022-10-18T16:48:58;6.07;;;4.95;;
8909;SDS011;4490;49.072;8.804;2022-10-18T16:51:25;5.50;;;4.68;;
8909;SDS011;4490;49.072;8.804;2022-10-18T16:53:51;6.65;;;4.80;;
8909;SDS011;4490;49.072;8.804;2022-10-18T16:56:18;5.40;;;4.82;;
8909;SDS011;4490;49.072;8.804;2022-10-18T16:58:47;6.13;;;4.57;;
8909;SDS011;4490;49.072;8.804;2022-10-18T17:01:14;4.63;;;4.22;;
8909;SDS011;4490;49.072;8.804;2022-10-18T17:03:42;4.97;;;4.50;;
8909;SDS011;4490;49.072;8.804;2022-10-18T17:06:18;6.15;;;4.82;;
8909;SDS011;4490;49.072;8.804;2022-10-18T17:08:47;5.53;;;4.90;;
8909;SDS011;4490;49.072;8.804;2022-10-18T17:11:14;5.38;;;4.85;;
8909;SDS011;4490;49.072;8.804;2022-10-18T17:13:41;5.80;;;4.78;;
8909;SDS011;4490;49.072;8.804;2022-10-18T17:16:12;8.50;;;4.75;;
8909;SDS011;4490;49.072;8.804;2022-10-18T17:18:56;8.80;;;5.00;;
8909;SDS011;4490;49.072;8.804;2022-10-18T17:21:24;6.57;;;4.90;;
8909;SDS011;4490;49.072;8.804;2022-10-18T17:23:50;5.38;;;4.38;;
8909;SDS011;4490;49.072;8.804;2022-10-18T17:26:17;6.40;;;4.60;;
8909;SDS011;4490;49.072;8.804;2022-10-18T17:28:45;6.20;;;4.80;;
8909;SDS011;4490;49.072;8.804;2022-10-18T17:31:14;6.00;;;4.40;;
8909;SDS011;4490;49.072;8.804;2022-10-18T17:33:40;4.63;;;4.20;;
8909;SDS011;4490;49.072;8.804;2022-10-18T17:36:05;7.72;;;4.53;;
8909;SDS011;4490;49.072;8.804;2022-10-18T17:38:31;6.28;;;4.53;;
8909;SDS011;4490;49.072;8.804;2022-10-18T17:40:57;4.93;;;4.40;;
8909;SDS011;4490;49.072;8.804;2022-10-18T17:43:23;5.00;;;4.50;;
8909;SDS011;4490;49.072;8.804;2022-10-18T17:45:54;8.03;;;4.20;;
8909;SDS011;4490;49.072;8.804;2022-10-18T17:48:20;9.10;;;4.50;;
8909;SDS011;4490;49.072;8.804;2022-10-18T17:50:46;5.97;;;4.00;;
8909;SDS011;4490;49.072;8.804;2022-10-18T17:53:12;6.88;;;4.40;;
8909;SDS011;4490;49.072;8.804;2022-10-18T17:55:38;5.90;;;4.23;;
8909;SDS011;4490;49.072;8.804;2022-10-18T17:58:04;6.95;;;4.65;;
8909;SDS011;4490;49.072;8.804;2022-10-18T18:00:30;4.57;;;4.18;;
8909;SDS011;4490;49.072;8.804;2022-10-18T18:02:58;5.40;;;4.43;;
8909;SDS011;4490;49.072;8.804;2022-10-18T18:05:24;6.93;;;4.60;;
8909;SDS011;4490;49.072;8.804;2022-10-18T18:07:54;6.43;;;4.70;;
8909;SDS011;4490;49.072;8.804;2022-10-18T18:10:20;7.30;;;5.03;;
8909;SDS011;4490;49.072;8.804;2022-10-18T18:12:46;6.63;;;4.87;;
8909;SDS011;4490;49.072;8.804;2022-10-18T18:15:11;5.80;;;4.30;;
8909;SDS011;4490;49.072;8.804;2022-10-18T18:17:37;4.60;;;4.20;;
8909;SDS011;4490;49.072;8.804;2022-10-18T18:20:03;7.05;;;4.97;;
8909;SDS011;4490;49.072;8.804;2022-10-18T18:22:29;6.37;;;4.90;;
8909;SDS011;4490;49.072;8.804;2022-10-18T18:24:55;10.57;;;5.40;;